createdAt,value
2019-02-18T00:00:53.807Z,70.20
2019-02-18T00:03:22.275Z,71.30
2019-02-18T00:05:50.673Z,73.50
2019-02-18T00:08:19.074Z,70.00
2019-02-18T00:10:47.447Z,70.00
2019-02-18T00:13:15.844Z,74.30
2019-02-18T00:15:44.299Z,71.80
2019-02-18T00:18:12.695Z,72.20
2019-02-18T00:20:41.079Z,75.40
2019-02-18T00:23:09.487Z,74.00
2019-02-18T00:25:37.878Z,73.00
2019-02-18T00:28:06.274Z,74.90
2019-02-18T00:30:34.653Z,74.00
2019-02-18T00:33:03.048Z,73.60
2019-02-18T00:35:31.433Z,73.70
2019-02-18T00:37:59.828Z,75.50
2019-02-18T00:40:28.288Z,74.60
2019-02-18T00:42:56.678Z,75.30
2019-02-18T00:45:25.217Z,75.40
2019-02-18T00:47:53.611Z,73.80
2019-02-18T00:50:22.019Z,76.50
2019-02-18T00:52:50.413Z,75.70
2019-02-18T00:55:18.791Z,76.40
2019-02-18T00:57:47.185Z,76.20
2019-02-18T01:00:16.994Z,73.60
2019-02-18T01:02:45.452Z,72.00
2019-02-18T01:05:13.857Z,77.30
2019-02-18T01:07:42.380Z,74.20
2019-02-18T01:10:12.587Z,75.30
2019-02-18T01:12:41.041Z,75.60
2019-02-18T01:15:14.288Z,74.60
2019-02-18T01:17:42.746Z,77.00
2019-02-18T01:20:13.277Z,77.50
2019-02-18T01:22:40.903Z,78.10
2019-02-18T01:25:13.283Z,79.90
2019-02-18T01:27:41.675Z,79.80
2019-02-18T01:30:17.276Z,77.80
2019-02-18T01:32:45.651Z,75.80
2019-02-18T01:35:14.107Z,77.50
2019-02-18T01:37:45.586Z,75.60
2019-02-18T01:40:15.971Z,74.30
2019-02-18T01:42:44.359Z,76.00
2019-02-18T01:45:14.570Z,75.30
2019-02-18T01:47:42.947Z,78.00
2019-02-18T01:50:13.611Z,77.80
2019-02-18T01:52:42.059Z,80.10
2019-02-18T01:55:11.797Z,79.60
2019-02-18T01:57:40.312Z,80.40
2019-02-18T02:00:14.187Z,80.50
2019-02-18T02:02:42.955Z,80.40
2019-02-18T02:05:13.658Z,80.60
2019-02-18T02:07:42.118Z,80.40
2019-02-18T02:10:17.184Z,80.50
2019-02-18T02:12:45.567Z,81.00
2019-02-18T02:15:19.663Z,80.60
2019-02-18T02:17:48.124Z,80.10
2019-02-18T02:20:16.580Z,80.50
2019-02-18T02:22:44.968Z,79.60
2019-02-18T02:25:13.348Z,78.40
2019-02-18T02:27:41.807Z,79.70
2019-02-18T02:30:11.328Z,78.80
2019-02-18T02:32:39.781Z,79.40
2019-02-18T02:35:08.297Z,77.40
2019-02-18T02:37:37.072Z,76.80
2019-02-18T02:40:08.704Z,77.20
2019-02-18T02:42:37.097Z,77.80
2019-02-18T02:45:07.016Z,76.60
2019-02-18T02:47:35.417Z,76.50
2019-02-18T02:50:04.931Z,80.10
2019-02-18T02:52:33.328Z,76.60
2019-02-18T02:55:01.707Z,77.20
2019-02-18T02:57:30.096Z,77.80
2019-02-18T02:59:58.477Z,77.20
2019-02-18T03:02:26.865Z,78.70
2019-02-18T03:04:55.240Z,79.00
2019-02-18T03:07:23.625Z,78.90
2019-02-18T03:09:52.008Z,78.10
2019-02-18T03:12:20.412Z,77.40
2019-02-18T03:14:48.787Z,76.80
2019-02-18T03:17:17.185Z,78.00
2019-02-18T03:19:45.563Z,77.30
2019-02-18T03:22:13.954Z,79.60
2019-02-18T03:25:01.831Z,77.20
2019-02-18T03:27:30.588Z,76.70
2019-02-18T03:30:17.510Z,76.60
2019-02-18T03:32:45.973Z,77.80
2019-02-18T03:35:14.350Z,79.20
2019-02-18T03:37:42.809Z,78.70
2019-02-18T03:40:11.194Z,78.20
2019-02-18T03:42:39.568Z,78.90
2019-02-18T03:45:08.294Z,77.90
2019-02-18T03:47:36.685Z,78.20
2019-02-18T03:50:05.232Z,79.90
2019-02-18T03:52:33.615Z,77.50
2019-02-18T03:55:02.078Z,77.60
2019-02-18T03:57:30.524Z,76.60
2019-02-18T03:59:58.988Z,78.20
2019-02-18T04:02:27.941Z,76.10
2019-02-18T04:04:56.337Z,77.50
2019-02-18T04:07:24.725Z,79.30
2019-02-18T04:09:53.123Z,78.80
2019-02-18T04:12:21.504Z,79.70
2019-02-18T04:14:49.902Z,78.00
2019-02-18T04:17:18.281Z,79.10
2019-02-18T04:19:46.678Z,78.40
2019-02-18T04:22:15.048Z,79.90
2019-02-18T04:24:43.447Z,79.60
2019-02-18T04:27:11.836Z,80.70
2019-02-18T04:29:40.232Z,80.30
2019-02-18T04:32:08.615Z,80.30
2019-02-18T04:34:37.009Z,80.70
2019-02-18T04:37:05.382Z,80.50
2019-02-18T04:39:33.777Z,79.90
2019-02-18T04:42:02.171Z,79.50
2019-02-18T04:44:30.556Z,80.10
2019-02-18T04:46:59.014Z,79.90
2019-02-18T04:49:27.406Z,79.80
2019-02-18T04:51:55.805Z,80.80
2019-02-18T04:54:24.194Z,82.00
2019-02-18T04:56:52.579Z,80.20
2019-02-18T04:59:20.961Z,80.50
2019-02-18T05:01:49.456Z,79.80
2019-02-18T05:04:18.173Z,81.40
2019-02-18T05:06:46.564Z,78.70
2019-02-18T05:09:14.953Z,78.70
2019-02-18T05:11:43.357Z,79.20
2019-02-18T05:14:11.731Z,77.80
2019-02-18T05:16:40.129Z,80.00
2019-02-18T05:19:08.513Z,82.50
2019-02-18T05:21:36.896Z,82.20
2019-02-18T05:24:05.279Z,82.30
2019-02-18T05:26:33.684Z,82.30
2019-02-18T05:29:02.159Z,82.00
2019-02-18T05:31:30.905Z,81.80
2019-02-18T05:33:59.280Z,82.20
2019-02-18T05:36:27.668Z,82.70
2019-02-18T05:38:56.048Z,82.70
2019-02-18T05:41:24.441Z,83.30
2019-02-18T05:43:53.107Z,82.90
2019-02-18T05:46:21.507Z,83.10
2019-02-18T05:48:49.897Z,83.10
2019-02-18T05:51:18.360Z,83.20
2019-02-18T05:53:46.740Z,83.20
2019-02-18T05:56:15.129Z,83.00
2019-02-18T05:58:43.508Z,83.10
2019-02-18T06:01:11.900Z,83.00
2019-02-18T06:03:40.316Z,83.00
2019-02-18T06:06:08.755Z,82.70
2019-02-18T06:08:37.140Z,81.60
2019-02-18T06:11:05.543Z,80.80
2019-02-18T06:13:33.927Z,81.40
2019-02-18T06:16:02.326Z,81.30
2019-02-18T06:18:30.768Z,82.60
2019-02-18T06:20:59.159Z,82.20
2019-02-18T06:23:27.584Z,82.50
2019-02-18T06:25:56.017Z,82.60
2019-02-18T06:28:24.412Z,82.50
2019-02-18T06:30:54.907Z,82.30
2019-02-18T06:33:22.911Z,82.10
2019-02-18T06:35:51.288Z,81.80
2019-02-18T06:38:19.680Z,81.80
2019-02-18T06:40:48.084Z,82.00
2019-02-18T06:43:16.480Z,82.20
2019-02-18T06:45:46.532Z,82.10
2019-02-18T06:48:25.314Z,82.50
2019-02-18T06:50:53.768Z,82.00
2019-02-18T06:53:22.169Z,82.10
2019-02-18T06:55:50.555Z,80.60
2019-02-18T06:58:20.588Z,81.30
2019-02-18T07:00:56.267Z,81.20
2019-02-18T07:03:28.774Z,81.80
2019-02-18T07:05:58.791Z,81.80
2019-02-18T07:08:28.824Z,81.60
2019-02-18T07:10:58.852Z,81.50
2019-02-18T07:13:27.253Z,81.40
2019-02-18T07:15:55.637Z,81.00
2019-02-18T07:18:24.029Z,80.60
2019-02-18T07:20:52.408Z,79.70
2019-02-18T07:23:20.798Z,79.10
2019-02-18T07:25:49.181Z,77.20
2019-02-18T07:28:17.580Z,75.30
2019-02-18T07:30:45.967Z,73.50
2019-02-18T07:33:14.356Z,71.60
2019-02-18T07:35:42.737Z,70.50
2019-02-18T07:38:11.133Z,68.90
2019-02-18T07:40:39.520Z,67.60
2019-02-18T07:43:07.921Z,67.20
2019-02-18T07:45:36.298Z,66.20
2019-02-18T07:48:04.690Z,64.70
2019-02-18T07:50:33.080Z,64.00
2019-02-18T07:53:01.464Z,62.40
2019-02-18T07:55:29.849Z,60.60
2019-02-18T07:57:58.243Z,59.90
2019-02-18T08:00:26.914Z,58.10
2019-02-18T08:02:55.342Z,58.00
2019-02-18T08:05:23.743Z,57.50
2019-02-18T08:07:52.122Z,56.70
2019-02-18T08:10:20.512Z,56.50
2019-02-18T08:12:48.899Z,54.60
2019-02-18T08:15:17.358Z,54.70
2019-02-18T08:17:45.739Z,54.50
2019-02-18T08:20:14.166Z,53.30
2019-02-18T08:22:42.538Z,52.30
2019-02-18T08:25:13.043Z,52.10
2019-02-18T08:27:41.432Z,51.50
2019-02-18T08:30:12.470Z,51.90
2019-02-18T08:32:40.860Z,50.70
2019-02-18T08:35:09.605Z,49.30
2019-02-18T08:37:37.979Z,49.00
2019-02-18T08:40:08.716Z,48.00
2019-02-18T08:42:37.108Z,47.00
2019-02-18T08:45:11.213Z,47.50
2019-02-18T08:47:39.680Z,46.70
2019-02-18T08:50:10.798Z,47.00
2019-02-18T08:52:39.180Z,47.50
2019-02-18T08:55:10.320Z,47.90
2019-02-18T08:57:38.715Z,47.40
2019-02-18T09:00:17.317Z,48.70
2019-02-18T09:02:45.705Z,45.30
2019-02-18T09:05:14.296Z,44.00
2019-02-18T09:07:42.868Z,44.10
2019-02-18T09:10:13.203Z,43.70
2019-02-18T09:12:41.577Z,44.10
2019-02-18T09:15:11.211Z,46.30
2019-02-18T09:17:39.599Z,46.30
2019-02-18T09:20:10.317Z,42.00
2019-02-18T09:22:49.082Z,42.90
2019-02-18T09:25:19.186Z,41.60
2019-02-18T09:27:49.281Z,41.90
2019-02-18T09:30:19.306Z,44.60
2019-02-18T09:32:47.692Z,41.50
2019-02-18T09:35:16.079Z,41.20
2019-02-18T09:37:44.478Z,39.50
2019-02-18T09:40:12.873Z,40.10
2019-02-18T09:42:41.255Z,39.00
2019-02-18T09:45:14.540Z,40.70
2019-02-18T09:47:41.948Z,40.90
2019-02-18T09:50:10.872Z,38.50
2019-02-18T09:52:39.268Z,37.90
2019-02-18T09:55:09.613Z,39.00
2019-02-18T09:57:38.003Z,38.30
2019-02-18T10:00:12.965Z,38.00
2019-02-18T10:02:41.359Z,37.90
2019-02-18T10:05:09.744Z,38.40
2019-02-18T10:07:38.219Z,36.80
2019-02-18T10:10:09.241Z,36.00
2019-02-18T10:12:37.648Z,36.90
2019-02-18T10:15:08.882Z,35.90
2019-02-18T10:17:37.275Z,36.00
2019-02-18T10:20:08.739Z,35.90
2019-02-18T10:22:37.130Z,36.00
2019-02-18T10:25:10.712Z,36.90
2019-02-18T10:27:39.107Z,35.80
2019-02-18T10:30:09.736Z,36.90
2019-02-18T10:32:38.169Z,34.70
2019-02-18T10:35:11.689Z,36.10
2019-02-18T10:37:40.093Z,35.90
2019-02-18T10:40:09.808Z,37.20
2019-02-18T10:42:38.282Z,35.70
2019-02-18T10:45:09.965Z,34.20
2019-02-18T10:47:38.357Z,33.30
2019-02-18T10:50:09.321Z,35.20
2019-02-18T10:52:37.716Z,34.90
2019-02-18T10:55:08.535Z,33.80
2019-02-18T10:57:37.216Z,35.10
2019-02-18T11:00:14.757Z,35.20
2019-02-18T11:02:43.145Z,34.10
2019-02-18T11:05:11.618Z,33.80
2019-02-18T11:07:40.084Z,33.10
2019-02-18T11:10:11.511Z,32.60
2019-02-18T11:12:39.901Z,37.20
2019-02-18T11:15:10.720Z,32.30
2019-02-18T11:17:39.354Z,32.90
2019-02-18T11:20:10.570Z,32.60
2019-02-18T11:22:38.945Z,31.70
2019-02-18T11:25:11.920Z,31.30
2019-02-18T11:27:40.377Z,32.80
2019-02-18T11:30:14.283Z,32.10
2019-02-18T11:32:42.656Z,34.40
2019-02-18T11:35:11.185Z,31.50
2019-02-18T11:37:39.565Z,32.50
2019-02-18T11:40:14.123Z,32.10
2019-02-18T11:42:42.576Z,31.50
2019-02-18T11:45:14.210Z,33.30
2019-02-18T11:47:42.676Z,32.50
2019-02-18T11:50:12.920Z,30.10
2019-02-18T11:52:41.564Z,32.40
2019-02-18T11:55:14.367Z,31.10
2019-02-18T11:57:43.329Z,30.40
2019-02-18T12:00:16.158Z,31.60
2019-02-18T12:02:44.620Z,32.00
2019-02-18T12:05:13.483Z,31.50
2019-02-18T12:07:41.864Z,30.80
2019-02-18T12:10:13.848Z,30.80
2019-02-18T12:12:42.656Z,34.50
2019-02-18T12:15:15.013Z,30.70
2019-02-18T12:17:43.481Z,31.00
2019-02-18T12:20:13.301Z,31.60
2019-02-18T12:22:41.757Z,30.30
2019-02-18T12:25:11.206Z,31.50
2019-02-18T12:27:39.973Z,30.10
2019-02-18T12:30:14.273Z,32.30
2019-02-18T12:32:42.662Z,29.80
2019-02-18T12:35:11.190Z,31.20
2019-02-18T12:37:39.585Z,30.60
2019-02-18T12:40:12.698Z,31.70
2019-02-18T12:42:42.432Z,31.50
2019-02-18T12:45:12.215Z,30.50
2019-02-18T12:47:40.836Z,29.90
2019-02-18T12:50:10.881Z,33.10
2019-02-18T12:52:39.263Z,30.90
2019-02-18T12:55:10.050Z,29.80
2019-02-18T12:57:38.872Z,29.00
2019-02-18T13:00:10.415Z,30.10
2019-02-18T13:02:44.438Z,29.30
2019-02-18T13:05:09.416Z,29.90
2019-02-18T13:07:37.806Z,29.10
2019-02-18T13:10:08.264Z,27.90
2019-02-18T13:12:35.942Z,30.10
2019-02-18T13:15:08.025Z,29.60
2019-02-18T13:17:36.554Z,29.10
2019-02-18T13:20:06.587Z,38.20
2019-02-18T13:22:34.992Z,28.90
2019-02-18T13:25:03.469Z,28.60
2019-02-18T13:27:31.843Z,29.90
2019-02-18T13:30:00.485Z,27.50
2019-02-18T13:32:28.876Z,28.80
2019-02-18T13:34:57.269Z,37.00
2019-02-18T13:37:25.735Z,28.20
2019-02-18T13:39:54.283Z,28.50
2019-02-18T13:42:22.683Z,29.20
2019-02-18T13:44:51.052Z,29.90
2019-02-18T13:47:19.830Z,29.30
2019-02-18T13:49:48.448Z,30.20
2019-02-18T13:52:16.840Z,29.20
2019-02-18T13:54:45.303Z,30.90
2019-02-18T13:57:13.693Z,30.10
2019-02-18T13:59:42.072Z,30.10
2019-02-18T14:02:10.610Z,31.20
2019-02-18T14:04:38.982Z,30.50
2019-02-18T14:07:07.449Z,28.80
2019-02-18T14:09:36.208Z,28.20
2019-02-18T14:12:04.674Z,29.90
2019-02-18T14:14:33.068Z,32.90
2019-02-18T14:17:01.605Z,29.60
2019-02-18T14:19:30.364Z,30.90
2019-02-18T14:21:58.748Z,30.30
2019-02-18T14:24:27.131Z,30.10
2019-02-18T14:26:55.520Z,33.20
2019-02-18T14:29:23.915Z,40.20
2019-02-18T14:31:52.309Z,32.40
2019-02-18T14:34:21.064Z,30.30
2019-02-18T14:36:49.523Z,31.00
2019-02-18T14:39:19.564Z,35.10
2019-02-18T14:41:47.953Z,32.10
2019-02-18T14:44:16.323Z,31.90
2019-02-18T14:46:44.981Z,31.30
2019-02-18T14:49:13.737Z,31.20
2019-02-18T14:51:42.137Z,31.50
2019-02-18T14:54:10.516Z,34.90
2019-02-18T14:56:38.909Z,31.30
2019-02-18T14:59:07.367Z,33.20
2019-02-18T15:01:35.803Z,51.30
2019-02-18T15:04:04.493Z,35.70
2019-02-18T15:06:33.266Z,39.80
2019-02-18T15:09:01.652Z,41.90
2019-02-18T15:11:30.035Z,33.90
2019-02-18T15:13:58.432Z,47.90
2019-02-18T15:16:26.816Z,33.30
2019-02-18T15:18:55.207Z,33.70
2019-02-18T15:21:23.598Z,34.20
2019-02-18T15:23:51.990Z,34.60
2019-02-18T15:26:20.456Z,33.90
2019-02-18T15:28:48.836Z,34.40
2019-02-18T15:31:17.216Z,34.80
2019-02-18T15:33:45.658Z,37.90
2019-02-18T15:36:14.079Z,37.30
2019-02-18T15:38:42.752Z,36.50
2019-02-18T15:41:11.396Z,36.70
2019-02-18T15:43:39.796Z,35.50
2019-02-18T15:46:08.179Z,45.60
2019-02-18T15:48:36.603Z,37.90
2019-02-18T15:51:05.051Z,36.10
2019-02-18T15:53:33.449Z,35.30
2019-02-18T15:56:01.836Z,36.70
2019-02-18T15:58:30.468Z,35.70
2019-02-18T16:00:59.343Z,36.20
2019-02-18T16:03:28.260Z,36.00
2019-02-18T16:05:56.635Z,36.40
2019-02-18T16:08:25.331Z,37.00
2019-02-18T16:10:53.783Z,36.50
2019-02-18T16:13:22.244Z,36.60
2019-02-18T16:15:50.885Z,37.40
2019-02-18T16:18:19.279Z,37.90
2019-02-18T16:20:47.659Z,37.70
2019-02-18T16:23:16.048Z,38.70
2019-02-18T16:25:44.929Z,39.00
2019-02-18T16:28:13.309Z,38.50
2019-02-18T16:30:41.693Z,37.50
2019-02-18T16:33:10.089Z,39.30
2019-02-18T16:35:38.851Z,39.20
2019-02-18T16:38:07.243Z,38.60
2019-02-18T16:40:36.009Z,39.50
2019-02-18T16:43:04.396Z,38.70
2019-02-18T16:45:32.863Z,39.10
2019-02-18T16:48:01.523Z,39.30
2019-02-18T16:50:29.923Z,41.70
2019-02-18T16:52:58.313Z,41.50
2019-02-18T16:55:26.708Z,42.40
2019-02-18T16:57:55.476Z,41.50
2019-02-18T17:00:28.547Z,40.80
2019-02-18T17:02:56.935Z,42.60
2019-02-18T17:05:25.343Z,42.90
2019-02-18T17:07:54.619Z,44.30
2019-02-18T17:10:23.016Z,44.70
2019-02-18T17:12:51.754Z,45.10
2019-02-18T17:15:20.149Z,44.20
2019-02-18T17:17:48.540Z,45.40
2019-02-18T17:20:16.936Z,46.00
2019-02-18T17:22:45.321Z,46.20
2019-02-18T17:25:14.188Z,47.30
2019-02-18T17:27:42.961Z,46.50
2019-02-18T17:30:15.466Z,47.20
2019-02-18T17:32:43.929Z,47.20
2019-02-18T17:35:13.772Z,46.90
2019-02-18T17:37:42.155Z,46.10
2019-02-18T17:40:14.626Z,47.00
2019-02-18T17:42:43.351Z,47.70
2019-02-18T17:45:14.156Z,48.20
2019-02-18T17:47:42.549Z,48.70
2019-02-18T17:50:15.282Z,49.10
2019-02-18T17:52:43.909Z,48.20
2019-02-18T17:55:14.911Z,48.00
2019-02-18T17:57:43.579Z,48.80
2019-02-18T18:00:17.369Z,49.50
2019-02-18T18:02:45.756Z,48.90
2019-02-18T18:05:15.200Z,48.60
2019-02-18T18:07:43.594Z,48.50
2019-02-18T18:10:13.224Z,47.70
2019-02-18T18:12:41.610Z,48.00
2019-02-18T18:15:17.919Z,48.90
2019-02-18T18:17:46.307Z,50.10
2019-02-18T18:20:14.964Z,49.00
2019-02-18T18:22:43.347Z,49.60
2019-02-18T18:25:13.463Z,49.70
2019-02-18T18:27:42.096Z,49.70
2019-02-18T18:30:15.701Z,49.90
2019-02-18T18:32:45.252Z,49.80
2019-02-18T18:35:13.928Z,50.30
2019-02-18T18:37:42.316Z,51.30
2019-02-18T18:40:19.347Z,51.30
2019-02-18T18:42:47.765Z,51.60
2019-02-18T18:45:17.297Z,51.90
2019-02-18T18:47:45.680Z,53.10
2019-02-18T18:50:16.480Z,52.30
2019-02-18T18:52:45.251Z,51.80
2019-02-18T18:55:13.637Z,52.00
2019-02-18T18:57:42.031Z,52.90
2019-02-18T19:00:23.465Z,52.40
2019-02-18T19:02:51.851Z,53.30
2019-02-18T19:05:20.692Z,53.20
2019-02-18T19:07:49.151Z,52.80
2019-02-18T19:10:17.538Z,53.30
2019-02-18T19:12:45.939Z,52.40
2019-02-18T19:15:16.934Z,53.50
2019-02-18T19:17:45.325Z,53.60
2019-02-18T19:20:14.252Z,54.40
2019-02-18T19:22:42.660Z,55.60
2019-02-18T19:25:12.680Z,56.00
2019-02-18T19:27:41.215Z,57.50
2019-02-18T19:30:24.075Z,56.50
2019-02-18T19:32:52.547Z,55.40
2019-02-18T19:35:20.943Z,56.10
2019-02-18T19:37:49.356Z,58.50
2019-02-18T19:40:17.750Z,57.20
2019-02-18T19:42:46.212Z,56.30
2019-02-18T19:45:20.445Z,57.20
2019-02-18T19:47:48.872Z,56.90
2019-02-18T19:50:18.295Z,57.00
2019-02-18T19:52:46.880Z,57.10
2019-02-18T19:55:15.250Z,55.90
2019-02-18T19:57:43.643Z,56.60
2019-02-18T20:00:17.449Z,55.80
2019-02-18T20:02:45.844Z,57.40
2019-02-18T20:05:14.361Z,57.90
2019-02-18T20:07:44.154Z,57.50
2019-02-18T20:10:13.351Z,58.00
2019-02-18T20:12:42.105Z,58.70
2019-02-18T20:15:15.639Z,57.10
2019-02-18T20:17:44.108Z,57.80
2019-02-18T20:20:14.694Z,57.20
2019-02-18T20:22:42.377Z,56.90
2019-02-18T20:25:10.897Z,58.20
2019-02-18T20:27:39.297Z,57.90
2019-02-18T20:30:13.299Z,58.00
2019-02-18T20:32:41.686Z,58.50
2019-02-18T20:35:11.022Z,57.60
2019-02-18T20:37:39.480Z,57.50
2019-02-18T20:40:10.174Z,58.10
2019-02-18T20:42:38.941Z,57.50
2019-02-18T20:45:12.121Z,58.70
2019-02-18T20:47:40.508Z,59.50
2019-02-18T20:50:11.031Z,58.80
2019-02-18T20:52:39.501Z,58.90
2019-02-18T20:55:15.023Z,58.70
2019-02-18T20:57:43.480Z,59.30
2019-02-18T21:00:15.295Z,59.40
2019-02-18T21:02:43.739Z,57.90
2019-02-18T21:05:12.134Z,59.50
2019-02-18T21:07:40.580Z,60.20
2019-02-18T21:10:14.219Z,59.30
2019-02-18T21:12:42.604Z,60.60
2019-02-18T21:15:10.995Z,59.70
2019-02-18T21:17:39.386Z,60.40
2019-02-18T21:20:10.183Z,60.50
2019-02-18T21:22:38.564Z,60.00
2019-02-18T21:25:08.866Z,60.00
2019-02-18T21:27:37.248Z,60.20
2019-02-18T21:30:11.509Z,61.70
2019-02-18T21:32:40.076Z,61.40
2019-02-18T21:35:08.527Z,61.40
2019-02-18T21:37:36.916Z,61.30
2019-02-18T21:40:07.854Z,60.20
2019-02-18T21:42:36.230Z,60.40
2019-02-18T21:45:07.272Z,63.40
2019-02-18T21:47:35.651Z,62.00
2019-02-18T21:50:05.984Z,64.70
2019-02-18T21:52:34.376Z,64.90
2019-02-18T21:55:02.770Z,64.30
2019-02-18T21:57:31.152Z,64.30
2019-02-18T21:59:59.550Z,63.70
2019-02-18T22:02:27.940Z,64.80
2019-02-18T22:04:56.347Z,65.10
2019-02-18T22:07:24.724Z,63.40
2019-02-18T22:09:53.825Z,65.20
2019-02-18T22:12:22.213Z,67.20
2019-02-18T22:14:50.605Z,68.80
2019-02-18T22:17:19.274Z,67.90
2019-02-18T22:19:47.665Z,68.30
2019-02-18T22:22:16.044Z,67.60
2019-02-18T22:24:44.452Z,68.40
2019-02-18T22:27:13.108Z,65.40
2019-02-18T22:29:41.495Z,67.30
2019-02-18T22:32:09.887Z,65.30
2019-02-18T22:34:38.289Z,66.20
2019-02-18T22:37:06.677Z,65.20
2019-02-18T22:39:35.057Z,65.90
2019-02-18T22:42:03.448Z,65.50
2019-02-18T22:44:32.223Z,64.80
2019-02-18T22:47:00.860Z,67.10
2019-02-18T22:49:29.249Z,66.90
2019-02-18T22:51:57.641Z,67.00
2019-02-18T22:54:26.031Z,70.30
2019-02-18T22:56:54.417Z,68.30
2019-02-18T22:59:22.877Z,67.50
2019-02-18T23:01:51.308Z,69.40
2019-02-18T23:04:19.705Z,71.10
2019-02-18T23:06:48.160Z,70.50
2019-02-18T23:09:16.608Z,70.00
2019-02-18T23:11:45.005Z,69.20
2019-02-18T23:14:13.375Z,71.20
2019-02-18T23:16:41.856Z,72.30
2019-02-18T23:19:10.519Z,74.30
2019-02-18T23:21:40.503Z,74.30
2019-02-18T23:24:08.963Z,73.50
2019-02-18T23:26:37.356Z,74.20
2019-02-18T23:29:05.737Z,74.70
2019-02-18T23:31:34.131Z,74.70
2019-02-18T23:34:02.787Z,72.90
2019-02-18T23:36:31.193Z,71.00
2019-02-18T23:38:59.572Z,70.40
2019-02-18T23:41:27.964Z,70.40
2019-02-18T23:43:56.416Z,70.40
2019-02-18T23:46:24.812Z,69.00
2019-02-18T23:48:53.185Z,69.70
2019-02-18T23:51:21.575Z,70.40
2019-02-18T23:53:49.959Z,70.20
2019-02-18T23:56:37.935Z,68.50
2019-02-18T23:59:06.311Z,69.80
